Aviation Digital Data Service (ADDS)

Output produced by METARs form (1213 UTC 16 September 2019)
found at http://www.aviationweather.gov/metar/data/
 
Forecast for: AMD
Text: TAF AMD SBCT 161130Z 1613/1712 36007KT CAVOK TX18/1618Z TN11/1708Z
Forecast period: 1300 UTC 16 September 2019 to 0300 UTC 17 September 2019
Forecast type: FROM: standard forecast or significant change
Winds: from the N (360 degrees) at 8 MPH (7 knots; 3.6 m/s)
Visibility: 6 or more miles 10+ km)
Ceiling: unknown
Clouds: missing
Weather: no significant weather forecast for this period
Text: BECMG 1703/1705 BKN004 RMK PDU
Forecast period: 0300 to 1200 UTC 17 September 2019
Forecast type: BECOMING: Conditions expected to become as follows by 0500 UTC 17 September 2019
Winds: from the N (360 degrees) at 8 MPH (7 knots; 3.6 m/s)
Visibility: 6 or more miles 10+ km)
Ceiling: 400 feet AGL
Clouds: broken clouds at 400 feet AGL
Weather: no significant weather forecast for this period